Time;durP1;ratioP1;P1;durP2;ratioP2;P2;SDS_P1;SDS_P2;PMS_P1;PMS_P2;Temp;Humidity;BMP_temperature;BMP_pressure;BME280_temperature;BME280_humidity;BME280_pressure;Samples;Min_cycle;Max_cycle;Signal;HPM_P1;HPM_P2
2021/01/26 00:02:04;;;;;;;40.10;15.20;;;;;;;0.21;83.88;99418.33;120583;1147;23083;-57
2021/01/26 00:04:33;;;;;;;38.83;15.23;;;;;;;0.22;84.62;99424.60;120675;1147;22917;-58
2021/01/26 00:07:03;;;;;;;41.37;15.70;;;;;;;0.21;84.25;99429.31;120712;1148;22921;-57
2021/01/26 00:09:32;;;;;;;37.20;14.07;;;;;;;0.20;84.62;99419.55;120498;1148;23871;-58
2021/01/26 00:12:02;;;;;;;43.00;16.00;;;;;;;0.21;83.90;99432.06;120543;1148;25847;-58
2021/01/26 00:14:32;;;;;;;36.03;14.23;;;;;;;0.20;84.42;99433.27;120563;1147;22988;-57
2021/01/26 00:17:02;;;;;;;40.78;14.43;;;;;;;0.21;84.65;99429.31;120467;1148;22887;-58
2021/01/26 00:19:32;;;;;;;40.73;15.37;;;;;;;0.21;84.02;99439.55;120507;1148;24851;-57
2021/01/26 00:22:02;;;;;;;38.27;14.63;;;;;;;0.21;83.79;99434.05;120625;1147;25842;-57
2021/01/26 00:24:31;;;;;;;44.30;15.20;;;;;;;0.22;83.86;99441.07;120784;1147;23045;-56
2021/01/26 00:27:00;;;;;;;37.67;14.83;;;;;;;0.21;84.64;99443.03;120508;1148;22913;-57
2021/01/26 00:29:30;;;;;;;38.13;13.03;;;;;;;0.21;84.34;99442.28;120517;1148;24589;-58
2021/01/26 00:31:59;;;;;;;39.35;14.85;;;;;;;0.22;84.62;99436.36;120582;1147;27009;-56
2021/01/26 00:34:29;;;;;;;38.53;12.53;;;;;;;0.22;84.36;99441.84;120520;1148;22971;-58
2021/01/26 00:36:59;;;;;;;34.53;11.63;;;;;;;0.22;84.41;99436.36;120419;1145;22928;-56
2021/01/26 00:39:28;;;;;;;30.57;11.80;;;;;;;0.23;84.07;99437.14;120690;1148;22958;-57
2021/01/26 00:41:57;;;;;;;34.50;12.07;;;;;;;0.22;84.70;99436.36;120567;1148;27247;-58
2021/01/26 00:44:26;;;;;;;36.47;13.50;;;;;;;0.23;83.89;99437.89;120501;1148;23027;-58
2021/01/26 00:46:55;;;;;;;38.25;13.75;;;;;;;0.23;84.04;99448.87;120492;1148;22932;-57
2021/01/26 00:49:24;;;;;;;38.03;13.10;;;;;;;0.24;84.75;99438.67;120533;1148;23083;-57
2021/01/26 00:51:54;;;;;;;36.38;13.38;;;;;;;0.24;84.03;99438.67;120523;1148;23530;-59
2021/01/26 00:54:23;;;;;;;33.87;11.77;;;;;;;0.24;84.66;99441.41;120289;1148;25883;-59
2021/01/26 00:56:52;;;;;;;37.00;14.60;;;;;;;0.24;84.30;99438.67;120463;1148;24335;-58
2021/01/26 00:59:21;;;;;;;35.17;12.53;;;;;;;0.25;84.03;99442.97;120189;1148;23049;-58
2021/01/26 01:01:52;;;;;;;38.88;13.40;;;;;;;0.24;84.50;99439.45;120618;1148;25874;-59
2021/01/26 01:04:22;;;;;;;33.97;13.03;;;;;;;0.25;84.13;99446.47;120697;1147;22966;-58
2021/01/26 01:06:51;;;;;;;32.10;12.23;;;;;;;0.24;84.55;99444.94;120692;1148;22913;-58
2021/01/26 01:09:20;;;;;;;35.70;13.10;;;;;;;0.26;84.29;99447.25;120571;1148;22906;-56
2021/01/26 01:11:50;;;;;;;34.80;12.83;;;;;;;0.26;84.06;99442.53;120481;1148;23157;-57
2021/01/26 01:14:18;;;;;;;34.93;11.57;;;;;;;0.26;84.00;99447.25;120784;1148;24385;-57
2021/01/26 01:16:48;;;;;;;35.07;13.07;;;;;;;0.26;84.03;99447.25;120504;1147;22941;-57
2021/01/26 01:19:17;;;;;;;35.03;12.63;;;;;;;0.26;84.03;99447.25;120359;1148;23015;-59
2021/01/26 01:21:46;;;;;;;29.13;10.43;;;;;;;0.26;84.83;99445.28;120578;1148;22935;-57
2021/01/26 01:24:16;;;;;;;38.47;13.30;;;;;;;0.27;84.03;99448.80;120577;1148;22955;-57
2021/01/26 01:26:45;;;;;;;38.03;12.73;;;;;;;0.27;84.56;99455.05;120527;1148;22930;-58
2021/01/26 01:29:14;;;;;;;34.73;11.87;;;;;;;0.28;84.10;99448.37;120526;1148;23228;-57
2021/01/26 01:31:44;;;;;;;30.00;11.03;;;;;;;0.28;84.38;99444.84;120617;1148;23017;-57
2021/01/26 01:34:13;;;;;;;34.03;12.23;;;;;;;0.28;84.76;99451.11;120596;1148;23361;-58
2021/01/26 01:36:43;;;;;;;34.97;13.67;;;;;;;0.28;84.72;99451.11;120577;1148;22928;-56
2021/01/26 01:39:12;;;;;;;33.28;11.18;;;;;;;0.28;84.39;99444.84;120512;1147;28531;-58
2021/01/26 01:41:41;;;;;;;31.57;12.03;;;;;;;0.29;83.85;99458.13;120479;1148;22942;-59
2021/01/26 01:44:11;;;;;;;34.80;12.60;;;;;;;0.29;83.89;99458.13;120595;1147;23012;-57
2021/01/26 01:46:52;;;;;;;31.00;12.37;;;;;;;0.29;83.81;99454.64;120523;1148;22954;-57
2021/01/26 01:49:28;;;;;;;32.90;12.53;;;;;;;0.30;83.79;99454.20;120410;1148;23075;-55
2021/01/26 01:51:58;;;;;;;32.90;12.05;;;;;;;0.30;84.04;99454.20;120512;1147;26949;-57
2021/01/26 01:54:34;;;;;;;29.72;10.63;;;;;;;0.31;84.31;99450.23;120548;1147;23089;-57
2021/01/26 01:57:09;;;;;;;31.70;12.00;;;;;;;0.31;83.88;99455.73;120458;1148;22895;-55
2021/01/26 01:59:42;;;;;;;30.10;10.87;;;;;;;0.32;84.50;99451.80;120419;1148;23017;-56
2021/01/26 02:02:13;;;;;;;34.07;10.83;;;;;;;0.32;84.14;99454.55;120472;1148;22917;-55
2021/01/26 02:04:43;;;;;;;29.70;10.57;;;;;;;0.31;83.84;99455.73;120600;1147;26498;-58
2021/01/26 02:07:12;;;;;;;29.70;10.83;;;;;;;0.31;84.36;99454.98;120668;1147;22972;-58
2021/01/26 02:09:43;;;;;;;30.30;10.77;;;;;;;0.31;84.57;99458.48;120512;1148;22941;-58
2021/01/26 02:12:13;;;;;;;34.50;12.07;;;;;;;0.32;84.09;99454.55;120715;1148;22945;-57
2021/01/26 02:14:49;;;;;;;32.58;12.00;;;;;;;0.31;84.61;99454.98;120574;1148;27250;-56
2021/01/26 02:17:28;;;;;;;34.10;11.93;;;;;;;0.33;84.27;99463.56;120606;1148;24625;-57
2021/01/26 02:20:44;;;;;;;34.87;12.67;;;;;;;0.32;83.71;99468.27;120547;1148;23014;-57
2021/01/26 02:23:35;;;;;;;32.07;11.40;;;;;;;0.31;83.79;99460.47;120481;1148;23390;-58
2021/01/26 02:26:36;;;;;;;35.95;12.75;;;;;;;0.31;84.45;99454.98;120501;1148;22882;-57
2021/01/26 02:29:08;;;;;;;32.13;10.88;;;;;;;0.31;83.87;99471.45;120443;1151;23140;-57
2021/01/26 02:31:56;;;;;;;33.95;12.90;;;;;;;0.30;83.78;99467.93;120555;1149;23468;-59
2021/01/26 02:35:00;;;;;;;32.13;11.67;;;;;;;0.30;83.85;99470.67;120533;1150;22970;-58
2021/01/26 02:37:59;;;;;;;29.37;10.67;;;;;;;0.30;84.20;99469.89;120067;1153;22965;-57
2021/01/26 02:40:35;;;;;;;33.35;12.18;;;;;;;0.31;84.17;99474.20;120086;1152;24749;-59
2021/01/26 02:43:20;;;;;;;28.93;10.10;;;;;;;0.29;84.37;99482.09;120106;1153;23488;-59
2021/01/26 02:45:59;;;;;;;30.27;10.30;;;;;;;0.28;84.26;99486.80;120089;1153;22964;-56
2021/01/26 02:48:41;;;;;;;31.67;10.70;;;;;;;0.27;83.86;99485.24;120211;1153;22947;-63
2021/01/26 02:51:16;;;;;;;34.50;11.40;;;;;;;0.27;83.76;99487.98;120494;1153;22993;-58
2021/01/26 02:53:59;;;;;;;34.47;11.33;;;;;;;0.27;83.77;99487.98;120221;1153;23016;-58
2021/01/26 02:56:39;;;;;;;27.37;8.93;;;;;;;0.27;84.46;99482.50;120733;1152;26203;-56
2021/01/26 02:59:19;;;;;;;38.03;11.77;;;;;;;0.27;83.82;99487.23;120209;1152;24438;-58
2021/01/26 03:01:54;;;;;;;37.93;13.30;;;;;;;0.28;84.45;99486.02;120031;1153;22901;-56
2021/01/26 03:04:36;;;;;;;31.50;9.97;;;;;;;0.27;84.01;99485.24;120188;1153;27537;-56
2021/01/26 03:07:08;;;;;;;28.70;9.30;;;;;;;0.27;84.25;99489.98;120227;1151;23028;-57
2021/01/26 03:09:43;;;;;;;32.40;11.93;;;;;;;0.27;83.70;99489.98;120588;1149;22926;-57
2021/01/26 03:12:19;;;;;;;30.90;12.03;;;;;;;0.27;84.06;99500.96;120477;1150;22951;-58
2021/01/26 03:14:54;;;;;;;36.40;11.40;;;;;;;0.26;84.56;99493.91;120553;1148;22907;-58
2021/01/26 03:17:31;;;;;;;32.37;11.23;;;;;;;0.26;83.67;99491.17;120597;1148;23075;-57
2021/01/26 03:20:06;;;;;;;32.83;12.57;;;;;;;0.26;84.60;99499.41;120603;1148;23084;-58
2021/01/26 03:22:38;;;;;;;33.10;11.45;;;;;;;0.25;84.26;99495.88;120785;1148;22941;-54
2021/01/26 03:25:10;;;;;;;35.07;12.73;;;;;;;0.24;84.28;99502.58;120609;1148;22916;-56
2021/01/26 03:27:44;;;;;;;31.80;10.70;;;;;;;0.23;84.48;99500.27;120772;1148;26350;-58
2021/01/26 03:30:19;;;;;;;33.93;11.80;;;;;;;0.23;84.56;99500.27;120731;1148;22948;-59
2021/01/26 03:32:52;;;;;;;31.90;12.20;;;;;;;0.22;84.11;99504.98;120605;1148;22889;-56
2021/01/26 03:35:21;;;;;;;32.73;11.50;;;;;;;0.22;83.85;99502.23;120472;1148;22942;-57
2021/01/26 03:37:55;;;;;;;33.40;12.13;;;;;;;0.21;83.72;99506.17;120690;1148;22916;-57
2021/01/26 03:40:25;;;;;;;28.33;11.37;;;;;;;0.21;83.59;99505.42;120591;1147;27196;-55
2021/01/26 03:42:54;;;;;;;32.30;11.87;;;;;;;0.20;83.93;99515.62;120662;1148;27550;-57
2021/01/26 03:45:24;;;;;;;36.93;12.60;;;;;;;0.18;84.42;99515.27;120706;1148;22942;-58
2021/01/26 03:48:09;;;;;;;35.43;11.83;;;;;;;0.18;84.50;99515.27;120548;1148;27254;-57
2021/01/26 03:50:47;;;;;;;35.37;12.37;;;;;;;0.17;83.95;99505.48;120590;1148;23051;-57
2021/01/26 03:53:58;;;;;;;34.20;10.80;;;;;;;0.16;83.88;99505.91;120616;1148;22944;-57
2021/01/26 03:56:43;;;;;;;38.90;13.77;;;;;;;0.14;83.91;99516.55;120409;1150;23840;-57
2021/01/26 03:59:24;;;;;;;38.70;13.93;;;;;;;0.13;83.86;99518.52;120260;1150;22991;-61
2021/01/26 04:02:03;;;;;;;42.40;13.98;;;;;;;0.13;84.43;99515.77;120334;1150;23331;-56
2021/01/26 04:04:38;;;;;;;38.30;14.03;;;;;;;0.13;84.60;99531.45;120440;1150;23694;-58
2021/01/26 04:07:15;;;;;;;35.80;13.10;;;;;;;0.12;83.91;99521.69;120441;1150;27129;-57
2021/01/26 04:09:52;;;;;;;32.85;12.65;;;;;;;0.10;84.58;99527.61;120529;1151;22958;-57
2021/01/26 04:12:26;;;;;;;34.93;12.40;;;;;;;0.10;83.71;99532.31;120477;1150;22987;-56
2021/01/26 04:14:59;;;;;;;36.93;13.13;;;;;;;0.08;84.14;99521.77;120560;1149;23055;-57
2021/01/26 04:17:32;;;;;;;34.43;13.13;;;;;;;0.07;83.51;99524.92;120627;1150;22958;-57
2021/01/26 04:20:05;;;;;;;34.83;12.47;;;;;;;0.05;84.09;99530.84;120433;1150;23119;-59
2021/01/26 04:22:35;;;;;;;33.37;12.67;;;;;;;0.04;83.89;99534.02;120388;1149;22914;-59
2021/01/26 04:25:18;;;;;;;34.83;12.85;;;;;;;0.04;84.18;99540.29;120203;1150;25820;-59
2021/01/26 04:27:47;;;;;;;29.77;9.77;;;;;;;0.04;83.67;99537.55;120307;1150;23356;-56
2021/01/26 04:30:19;;;;;;;33.80;11.20;;;;;;;0.04;84.37;99526.57;120917;1150;25903;-57
2021/01/26 04:32:54;;;;;;;35.43;12.80;;;;;;;0.05;83.56;99530.06;120637;1148;22955;-56
2021/01/26 04:35:23;;;;;;;39.87;14.43;;;;;;;0.04;83.93;99534.02;120876;1148;22922;-56
2021/01/26 04:37:53;;;;;;;35.90;12.30;;;;;;;0.03;83.65;99544.22;120509;1148;22923;-57
2021/01/26 04:40:23;;;;;;;35.17;13.53;;;;;;;0.03;83.45;99543.44;120587;1148;22912;-57
2021/01/26 04:43:00;;;;;;;33.70;11.30;;;;;;;0.01;84.11;99543.87;120518;1148;23077;-58
2021/01/26 04:45:36;;;;;;;29.03;9.77;;;;;;;0.01;84.09;99546.61;120665;1148;22909;-57
2021/01/26 04:48:11;;;;;;;33.50;12.85;;;;;;;-0.01;83.52;99538.81;120637;1148;22931;-59
2021/01/26 04:50:50;;;;;;;33.67;12.00;;;;;;;-0.02;83.46;99542.73;120524;1148;25890;-58
2021/01/26 04:53:41;;;;;;;35.75;12.95;;;;;;;-0.02;83.30;99541.96;120555;1147;22882;-57
2021/01/26 04:56:14;;;;;;;;;;;;;;;-0.04;84.29;99544.36;120571;1148;22945;-54
2021/01/26 04:59:06;;;;;;;32.85;11.85;;;;;;;-0.04;83.41;99555.33;120605;1148;21569;-56
2021/01/26 05:02:03;;;;;;;36.10;12.37;;;;;;;-0.05;84.25;99549.09;120509;1148;22899;-57
2021/01/26 05:04:38;;;;;;;31.93;11.10;;;;;;;-0.05;84.02;99559.29;120935;1145;25649;-55
2021/01/26 05:07:14;;;;;;;34.33;12.70;;;;;;;-0.05;83.68;99553.80;120798;1148;23005;-58
2021/01/26 05:09:50;;;;;;;35.27;13.60;;;;;;;-0.05;83.40;99548.31;120492;1148;23077;-57
2021/01/26 05:12:22;;;;;;;40.15;14.60;;;;;;;-0.05;83.37;99562.81;120522;1148;24619;-57
2021/01/26 05:15:00;;;;;;;35.10;12.53;;;;;;;-0.04;84.24;99555.33;120683;1148;22928;-55
2021/01/26 05:17:37;;;;;;;35.00;11.90;;;;;;;-0.04;83.51;99556.11;120753;1148;22955;-54
2021/01/26 05:20:13;;;;;;;36.43;14.67;;;;;;;-0.05;83.92;99557.33;120639;1148;22914;-57
2021/01/26 05:22:50;;;;;;;34.05;11.80;;;;;;;-0.04;83.43;99560.81;120729;1148;23007;-54
2021/01/26 05:25:21;;;;;;;33.95;13.50;;;;;;;-0.03;83.42;99563.16;120593;1147;22938;-57
2021/01/26 05:27:52;;;;;;;36.43;13.47;;;;;;;-0.02;83.87;99574.89;120664;1147;22879;-56
2021/01/26 05:30:26;;;;;;;;;;;;;;;-0.02;84.18;99574.89;120808;1148;26011;-56
2021/01/26 05:32:57;;;;;;;32.33;11.93;;;;;;;-0.02;84.36;99566.66;120978;1148;21574;-55
2021/01/26 05:35:28;;;;;;;40.00;14.55;;;;;;;-0.01;84.37;99566.25;120810;1147;26477;-57
2021/01/26 05:37:57;;;;;;;39.23;15.73;;;;;;;0.00;84.08;99562.30;120834;1147;25852;-55
2021/01/26 05:40:28;;;;;;;41.67;15.40;;;;;;;0.03;84.35;99573.63;120537;1148;23002;-57
2021/01/26 05:43:00;;;;;;;39.47;15.50;;;;;;;0.03;83.48;99570.88;120929;1147;23010;-56
2021/01/26 05:45:33;;;;;;;42.70;16.40;;;;;;;0.04;84.28;99564.98;120591;1148;22952;-54
2021/01/26 05:48:07;;;;;;;41.33;15.73;;;;;;;0.05;83.64;99573.97;120749;1148;24694;-56
2021/01/26 05:50:38;;;;;;;38.63;15.57;;;;;;;0.06;84.18;99583.77;120765;1148;22890;-58
2021/01/26 05:53:18;;;;;;;46.97;18.53;;;;;;;0.06;83.73;99587.29;120836;1147;25813;-55
2021/01/26 05:55:58;;;;;;;42.80;15.37;;;;;;;0.07;84.12;99588.82;122910;1148;27528;-56
2021/01/26 05:58:29;;;;;;;36.17;13.90;;;;;;;0.08;83.65;99590.37;120860;1147;22910;-54
2021/01/26 06:00:58;;;;;;;;;;;;;;;0.09;84.46;99591.91;120883;1148;23032;-53
2021/01/26 06:03:31;;;;;;;41.40;15.07;;;;;;;0.10;83.82;99587.20;120814;1148;21612;-56
2021/01/26 06:06:06;;;;;;;41.57;15.50;;;;;;;0.12;84.51;99587.55;120781;1148;23059;-57
2021/01/26 06:08:48;;;;;;;49.20;16.30;;;;;;;0.13;83.75;99598.10;120914;1148;23122;-56
2021/01/26 06:11:20;;;;;;;41.50;16.73;;;;;;;0.13;84.51;99597.32;120629;1148;22917;-53
2021/01/26 06:13:49;;;;;;;41.90;16.50;;;;;;;0.13;83.87;99595.36;120549;1148;23015;-54
2021/01/26 06:16:24;;;;;;;44.75;18.15;;;;;;;0.14;83.71;99594.17;120618;1148;23659;-54
2021/01/26 06:18:58;;;;;;;41.53;15.97;;;;;;;0.14;83.84;99599.66;120739;1148;22964;-56
2021/01/26 06:21:29;;;;;;;43.25;15.45;;;;;;;0.13;84.22;99600.84;120700;1147;23389;-63
2021/01/26 06:24:00;;;;;;;43.97;16.07;;;;;;;0.12;83.69;99604.02;121049;1148;22985;-56
2021/01/26 06:26:34;;;;;;;36.57;14.57;;;;;;;0.11;83.98;99610.69;121729;1146;24588;-57
2021/01/26 06:29:25;;;;;;;39.40;16.00;;;;;;;0.10;83.47;99607.20;120568;1147;23074;-58
2021/01/26 06:32:06;;;;;;;39.07;13.90;;;;;;;0.10;83.49;99615.43;120904;1148;22896;-57
2021/01/26 06:34:54;;;;;;;41.37;17.07;;;;;;;0.10;83.68;99614.66;120820;1148;22904;-63
2021/01/26 06:37:43;;;;;;;38.90;15.75;;;;;;;0.10;84.05;99611.91;120384;1148;23018;-57
2021/01/26 06:40:31;;;;;;;41.23;15.93;;;;;;;0.10;84.08;99615.43;120476;1147;27002;-55
2021/01/26 06:43:09;;;;;;;38.13;16.07;;;;;;;0.10;83.92;99611.91;120727;1148;22919;-57
2021/01/26 06:45:48;;;;;;;38.93;15.87;;;;;;;0.11;83.91;99618.92;120539;1148;22890;-56
2021/01/26 06:48:57;;;;;;;39.23;15.63;;;;;;;0.11;83.49;99618.92;120566;1147;22934;-57
2021/01/26 06:52:03;;;;;;;39.88;15.38;;;;;;;0.12;84.35;99615.78;120507;1147;22922;-58
2021/01/26 06:54:57;;;;;;;41.17;14.53;;;;;;;0.10;83.50;99618.17;120577;1147;22909;-56
2021/01/26 06:58:00;;;;;;;41.77;16.27;;;;;;;0.10;83.84;99614.66;120654;1148;22931;-57
2021/01/26 07:00:44;;;;;;;43.67;18.13;;;;;;;0.10;83.83;99617.39;120362;1148;22971;-57
2021/01/26 07:03:48;;;;;;;33.80;12.20;;;;;;;0.09;83.51;99616.61;120489;1147;22929;-59
2021/01/26 07:06:33;;;;;;;38.10;15.80;;;;;;;0.09;83.74;99613.87;120325;1147;22962;-53
2021/01/26 07:09:28;;;;;;;36.30;14.20;;;;;;;0.09;83.78;99619.36;120319;1147;27257;-56
2021/01/26 07:12:30;;;;;;;34.95;14.90;;;;;;;0.08;84.31;99625.28;120598;1147;22949;-56
2021/01/26 07:15:20;;;;;;;41.35;15.25;;;;;;;0.08;84.19;99620.57;120302;1148;22899;-56
2021/01/26 07:18:23;;;;;;;38.20;15.70;;;;;;;0.08;83.93;99628.80;120467;1148;22969;-56
2021/01/26 07:21:11;;;;;;;39.20;15.23;;;;;;;0.10;84.00;99642.87;120891;1147;22942;-53
2021/01/26 07:24:10;;;;;;;45.03;16.53;;;;;;;0.11;84.19;99633.43;120770;1147;27192;-57
2021/01/26 07:26:57;;;;;;;39.15;15.05;;;;;;;0.14;84.42;99640.05;121305;1148;23060;-57
2021/01/26 07:29:48;;;;;;;35.20;14.27;;;;;;;0.13;83.83;99642.02;120663;1147;23023;-55
2021/01/26 07:32:28;;;;;;;37.73;14.20;;;;;;;0.13;84.38;99639.27;120416;1148;22875;-56
2021/01/26 07:35:16;;;;;;;40.88;16.70;;;;;;;0.13;84.40;99642.02;120392;1148;23140;-55
2021/01/26 07:37:53;;;;;;;34.60;14.60;;;;;;;0.14;83.61;99646.32;120571;1147;22927;-57
2021/01/26 07:40:32;;;;;;;36.00;13.17;;;;;;;0.14;83.62;99648.28;120960;1148;27103;-56
2021/01/26 07:43:14;;;;;;;36.70;13.80;;;;;;;0.14;84.56;99649.06;120707;1147;22942;-58
2021/01/26 07:45:57;;;;;;;31.03;13.27;;;;;;;0.14;84.02;99656.52;120591;1148;27399;-55
2021/01/26 07:48:37;;;;;;;36.30;14.27;;;;;;;0.15;83.99;99652.56;120842;1148;23090;-57
2021/01/26 07:51:12;;;;;;;31.17;12.15;;;;;;;0.16;84.23;99660.39;120482;1147;22974;-55
2021/01/26 07:53:53;;;;;;;35.47;15.30;;;;;;;0.18;84.78;99659.97;120834;1147;22927;-53
2021/01/26 07:56:30;;;;;;;38.20;15.40;;;;;;;0.20;84.79;99661.09;120921;1147;24463;-55
2021/01/26 07:59:03;;;;;;;33.43;13.23;;;;;;;0.22;83.94;99664.19;120560;1148;22927;-58
2021/01/26 08:01:38;;;;;;;34.20;14.00;;;;;;;0.24;83.77;99666.50;120928;1148;23334;-59
2021/01/26 08:04:08;;;;;;;37.70;14.00;;;;;;;0.25;84.04;99654.34;120391;1148;26356;-55
2021/01/26 08:06:54;;;;;;;42.67;17.90;;;;;;;0.25;84.71;99660.58;120418;1147;24823;-57
2021/01/26 08:09:34;;;;;;;40.40;16.97;;;;;;;0.28;84.50;99661.72;120643;1147;24537;-57
2021/01/26 08:12:07;;;;;;;26.97;10.40;;;;;;;0.29;83.70;99671.52;120318;1148;22879;-58
2021/01/26 08:14:41;;;;;;;35.47;15.17;;;;;;;0.28;83.59;99664.46;121151;1147;24999;-58
2021/01/26 08:17:15;;;;;;;36.15;13.15;;;;;;;0.29;83.62;99674.26;120418;1148;23024;-56
2021/01/26 08:19:47;;;;;;;37.50;15.03;;;;;;;0.30;84.20;99673.05;120551;1147;22957;-56
2021/01/26 08:22:22;;;;;;;39.47;16.10;;;;;;;0.28;83.41;99670.73;120542;1148;22876;-56
2021/01/26 08:25:04;;;;;;;36.40;15.63;;;;;;;0.29;83.76;99677.75;120520;1147;22921;-56
2021/01/26 08:27:59;;;;;;;37.27;15.53;;;;;;;0.29;84.10;99682.49;120483;1147;24731;-56
2021/01/26 08:31:05;;;;;;;37.53;14.87;;;;;;;0.30;84.13;99679.31;120471;1148;22969;-55
2021/01/26 08:33:35;;;;;;;37.33;14.33;;;;;;;0.30;83.42;99681.28;120616;1148;22931;-55
2021/01/26 08:36:12;;;;;;;38.55;15.85;;;;;;;0.30;83.84;99679.31;120397;1148;22913;-58
2021/01/26 08:38:53;;;;;;;37.83;15.57;;;;;;;0.32;84.31;99673.39;120982;1148;22956;-57
2021/01/26 08:41:44;;;;;;;34.25;14.00;;;;;;;0.33;83.60;99683.95;120487;1148;22883;-58
2021/01/26 08:44:54;;;;;;;29.15;11.85;;;;;;;0.33;83.53;99692.18;120545;1148;27518;-57
2021/01/26 08:47:50;;;;;;;31.57;12.27;;;;;;;0.34;83.19;99690.22;120289;1151;23262;-56
2021/01/26 08:50:26;;;;;;;34.07;14.03;;;;;;;0.33;84.04;99694.17;120378;1150;22916;-57
2021/01/26 08:53:12;;;;;;;35.85;14.70;;;;;;;0.34;84.05;99693.75;120152;1149;23174;-58
2021/01/26 08:55:44;;;;;;;31.40;12.33;;;;;;;0.35;83.45;99692.53;120361;1149;22940;-55
2021/01/26 08:58:34;;;;;;;33.60;13.45;;;;;;;0.35;83.79;99694.53;120199;1150;27186;-57
2021/01/26 09:01:04;;;;;;;30.07;11.33;;;;;;;0.35;83.73;99695.28;119831;1150;22976;-56
2021/01/26 09:03:40;;;;;;;31.73;12.60;;;;;;;0.36;82.85;99704.30;120364;1150;23019;-54
2021/01/26 09:06:13;;;;;;;28.90;11.03;;;;;;;0.37;83.02;99697.63;120448;1150;27041;-55
2021/01/26 09:08:52;;;;;;;29.15;10.95;;;;;;;0.37;83.32;99703.11;120526;1149;26357;-56
2021/01/26 09:11:29;;;;;;;32.42;12.23;;;;;;;0.37;82.55;99703.89;120548;1149;26517;-54
2021/01/26 09:14:07;;;;;;;27.10;10.10;;;;;;;0.37;82.44;99703.11;120342;1150;22951;-56
2021/01/26 09:16:37;;;;;;;23.17;8.67;;;;;;;0.37;82.77;99700.37;120288;1150;27540;-54
2021/01/26 09:19:12;;;;;;;25.00;10.18;;;;;;;0.36;82.88;99713.31;120529;1150;22878;-59
2021/01/26 09:21:41;;;;;;;26.27;10.00;;;;;;;0.38;83.12;99702.69;120507;1150;22922;-56
2021/01/26 09:24:11;;;;;;;29.80;10.27;;;;;;;0.38;82.20;99716.41;120700;1148;23080;-57
2021/01/26 09:26:40;;;;;;;28.38;10.72;;;;;;;0.40;82.62;99711.27;120700;1147;23045;-56
2021/01/26 09:29:23;;;;;;;31.30;11.57;;;;;;;0.42;82.45;99716.33;120309;1148;23077;-57
2021/01/26 09:31:53;;;;;;;26.30;10.63;;;;;;;0.45;83.23;99710.79;120768;1147;22920;-53
2021/01/26 09:34:27;;;;;;;28.05;12.07;;;;;;;0.48;82.37;99718.16;120177;1147;22999;-54
2021/01/26 09:37:11;;;;;;;22.83;8.57;;;;;;;0.47;82.25;99716.63;119939;1148;22975;-54
2021/01/26 09:39:41;;;;;;;24.90;9.97;;;;;;;0.47;83.01;99715.84;120921;1148;25970;-57
2021/01/26 09:42:20;;;;;;;28.73;11.83;;;;;;;0.46;82.17;99720.56;120615;1147;23022;-56
2021/01/26 09:45:01;;;;;;;25.43;10.82;;;;;;;0.45;82.81;99721.77;119977;1148;22934;-58
2021/01/26 09:47:30;;;;;;;24.63;9.85;;;;;;;0.45;81.72;99729.23;120264;1147;22874;-54
2021/01/26 09:50:08;;;;;;;22.93;7.63;;;;;;;0.42;82.28;99713.59;119956;1148;22926;-54
2021/01/26 09:52:39;;;;;;;23.80;7.35;;;;;;;0.42;81.81;99719.86;120179;1148;23215;-56
2021/01/26 09:55:12;;;;;;;23.87;9.03;;;;;;;0.41;82.43;99712.83;119984;1148;23044;-55
2021/01/26 09:57:43;;;;;;;23.80;8.87;;;;;;;0.42;82.31;99721.82;121112;1147;22915;-55
2021/01/26 10:00:16;;;;;;;22.60;9.00;;;;;;;0.41;81.27;99721.07;119885;1148;23001;-57
2021/01/26 10:02:46;;;;;;;24.57;10.00;;;;;;;0.40;81.60;99722.25;120034;1148;22924;-57
2021/01/26 10:05:18;;;;;;;26.77;9.67;;;;;;;0.42;81.87;99728.09;120209;1148;26127;-56
2021/01/26 10:08:06;;;;;;;23.93;9.00;;;;;;;0.43;82.12;99728.88;120122;1148;28397;-56
2021/01/26 10:10:37;;;;;;;26.43;10.57;;;;;;;0.44;82.02;99727.66;119935;1147;23464;-56
2021/01/26 10:13:24;;;;;;;25.10;9.00;;;;;;;0.45;81.78;99730.01;119970;1147;22885;-56
2021/01/26 10:15:54;;;;;;;26.20;9.93;;;;;;;0.46;81.66;99731.55;120172;1147;22919;-55
2021/01/26 10:18:28;;;;;;;28.35;10.28;;;;;;;0.49;81.75;99738.95;120542;1147;28553;-53
2021/01/26 10:21:00;;;;;;;24.75;9.80;;;;;;;0.51;81.58;99738.52;120474;1147;23339;-56
2021/01/26 10:23:36;;;;;;;24.13;8.73;;;;;;;0.53;81.62;99736.13;119949;1148;22914;-56
2021/01/26 10:26:14;;;;;;;26.70;8.50;;;;;;;0.56;80.85;99735.30;119941;1148;22938;-57
2021/01/26 10:28:58;;;;;;;24.50;8.33;;;;;;;0.58;80.78;99728.16;119803;1148;22926;-56
2021/01/26 10:31:29;;;;;;;23.43;8.83;;;;;;;0.61;81.18;99732.03;120003;1148;22918;-55
2021/01/26 10:33:59;;;;;;;23.75;9.10;;;;;;;0.64;81.00;99734.70;119988;1148;22923;-55
2021/01/26 10:36:33;;;;;;;24.53;9.67;;;;;;;0.67;80.74;99727.58;120156;1148;27358;-56
2021/01/26 10:39:20;;;;;;;25.73;9.60;;;;;;;0.70;81.34;99732.99;120040;1148;28420;-54
2021/01/26 10:41:57;;;;;;;24.60;7.43;;;;;;;0.75;80.26;99737.22;119925;1148;22942;-54
2021/01/26 10:44:27;;;;;;;21.37;6.40;;;;;;;0.77;80.78;99730.11;119577;1147;22997;-56
2021/01/26 10:46:56;;;;;;;24.37;8.10;;;;;;;0.80;80.57;99736.73;120071;1148;26082;-55
2021/01/26 10:49:30;;;;;;;22.40;8.30;;;;;;;0.83;80.26;99732.37;120049;1147;22836;-57
2021/01/26 10:52:02;;;;;;;23.13;9.00;;;;;;;0.85;80.62;99735.46;119910;1148;26760;-55
2021/01/26 10:54:31;;;;;;;23.03;8.13;;;;;;;0.87;80.34;99731.06;120208;1147;22971;-55
2021/01/26 10:57:01;;;;;;;24.97;7.27;;;;;;;0.88;79.88;99732.63;120408;1148;22925;-56
2021/01/26 10:59:30;;;;;;;23.37;8.90;;;;;;;0.91;80.24;99729.02;120479;1148;22972;-59
2021/01/26 11:01:59;;;;;;;20.93;9.03;;;;;;;0.95;81.03;99735.23;120325;1147;23073;-55
2021/01/26 11:04:28;;;;;;;24.67;8.87;;;;;;;0.99;80.13;99737.89;120643;1148;22859;-56
2021/01/26 11:06:58;;;;;;;23.57;10.07;;;;;;;1.02;80.60;99729.56;120347;1148;22979;-55
2021/01/26 11:09:27;;;;;;;26.17;8.50;;;;;;;1.06;79.93;99733.00;120289;1148;26406;-56
2021/01/26 11:11:56;;;;;;;23.10;8.10;;;;;;;1.11;79.91;99726.23;121464;1147;22968;-55
2021/01/26 11:14:25;;;;;;;23.50;7.93;;;;;;;1.14;80.08;99728.14;121469;1148;29347;-57
2021/01/26 11:16:54;;;;;;;26.93;8.17;;;;;;;1.16;79.79;99733.98;120469;1147;22917;-58
2021/01/26 11:19:23;;;;;;;21.30;8.40;;;;;;;1.17;79.25;99728.05;121024;1147;29280;-56
2021/01/26 11:21:53;;;;;;;22.20;6.67;;;;;;;1.19;79.78;99724.86;120551;1148;22902;-59
2021/01/26 11:24:22;;;;;;;21.87;8.07;;;;;;;1.21;79.65;99719.70;120934;1147;25236;-56
2021/01/26 11:26:52;;;;;;;23.13;7.93;;;;;;;1.23;79.70;99728.30;120561;1148;22911;-56
2021/01/26 11:29:22;;;;;;;23.18;8.88;;;;;;;1.23;79.35;99722.80;121813;1147;22919;-56
2021/01/26 11:31:52;;;;;;;24.32;7.28;;;;;;;1.24;78.77;99725.12;120615;1147;23038;-57
2021/01/26 11:34:56;;;;;;;26.50;8.57;;;;;;;1.25;79.39;99720.39;124805;1109;27361;-58
2021/01/26 11:37:26;;;;;;;24.43;8.17;;;;;;;1.27;79.80;99718.77;125053;1111;27249;-54
2021/01/26 11:39:57;;;;;;;23.53;7.97;;;;;;;1.30;79.47;99720.67;125410;1111;26444;-56
2021/01/26 11:42:26;;;;;;;25.00;8.93;;;;;;;1.32;79.73;99721.02;125252;1112;23004;-58
2021/01/26 11:44:56;;;;;;;17.27;5.87;;;;;;;1.34;78.16;99726.86;125112;1111;23014;-57
2021/01/26 11:47:25;;;;;;;21.13;7.77;;;;;;;1.34;79.08;99723.33;124901;1111;23252;-58
2021/01/26 11:49:55;;;;;;;19.93;7.03;;;;;;;1.36;79.15;99716.21;124568;1111;23087;-57
2021/01/26 11:52:24;;;;;;;21.93;6.80;;;;;;;1.38;78.31;99722.05;124946;1111;23089;-57
2021/01/26 11:54:54;;;;;;;25.47;8.13;;;;;;;1.38;79.30;99716.55;124868;1111;23161;-58
2021/01/26 11:57:24;;;;;;;20.48;6.87;;;;;;;1.40;78.82;99718.87;124885;1111;23354;-58
2021/01/26 11:59:53;;;;;;;22.73;7.47;;;;;;;1.40;78.63;99711.39;124660;1111;23006;-58
2021/01/26 12:02:23;;;;;;;21.83;7.27;;;;;;;1.42;78.56;99716.46;124604;1111;23066;-58